Airport View

Enter AWOS ICAO identifier for current METAR.

ex. KFNL

KAST 202355Z AUTO 26008KT 10SM FEW018 OVC041 18/14 A3014 RMK AO2 SLP204 T01780144 10194 20167 53003

21 Sep 2019 00:53

Frequency: 135.375

Phone: 503-861-1371

Other Area AWOS: KKLS - KTMK - KCLS - KSPB

TAF KAST 202324Z 2100/2124 29008KT P6SM SCT015 OVC035 FM210300 22003KT P6SM OVC007 FM211600 26003KT P6SM OVC015 FM212000 27006KT P6SM OVC050